メインページ
METAR-TAF:

METAR-TAF

空港 :

Hwange National Park, ジンバブエ

緯度: 18-38S, 経度: 027-00E, 海抜: 1079m

現時点の気象観測

当レポートは3時間8分前の15:00(UTC)に作成
東/北東の風 7kt
気温 28°C
湿度 40%
気圧 1018 hPa
視程10km以上
1,500メートル以下は雲なし、積乱雲なし

METAR: FVWN 161500Z 06007KT CAVOK 28/13 Q1018

時間: 20:08 (18:08 UTC)


TAF: 見つかりません

4,000以上の空港の気象観測と天気予報(METAR報とTAF報)

利用可能な観測所は地図上に黄色い丸と赤い丸で示す。

丸の上にカーソルを重ねると観測所名を参照できる。

次にクリックすると気象観測と天気予報を参照できる。

マップの切り替え:黒色「×」印の緑ボタンをクリックして拡大、「-」印の緑ボタンをクリックして縮小、緑色の三角印をクリックして隣りの地図に切り替え


METAR-TAF: